Coastal Inspiration — CFN4970 — position and weather

sailwx.info

Track history (hours):
 
Tides and Currents Weather Stations Pressure Air Temp Water Temp Dewpoint Dewpoint Depression Visibility Wind Speed Wind Dir Waves Ship Positions

Coastal Inspiration

Last reported at 2014-Jul-22 18:34 UTC. Time now 2014-Jul-22 18:57 UTC.
Position N 49°05' W 123°27'.

Length 160 m; draft 6 m.

Type: Passenger vessel. MMSI: 316011408.

Date/timePositionNaut miles runAvg speedWind from/ knotsBaromVisibWave heightAir tempDewpointWater temp
2014-Jul-22 18:34N 49°05' W 123°27'1817.6
2014-Jul-22 17:34N 49°12' W 123°52'3 2.7
2014-Jul-22 16:33N 49°10' W 123°53'1716.7
2014-Jul-22 15:33N 49°07' W 123°28'1514.8
2014-Jul-22 14:33N 49°00' W 123°08'1212.3
2014-Jul-22 13:33N 49°04' W 123°26'1717.3
2014-Jul-22 12:34N 49°13' W 123°49'5 4.2
2014-Jul-22 11:29N 49°10' W 123°53'0 0.0
2014-Jul-22 10:33N 49°10' W 123°53'0 0.0
2014-Jul-22 09:33N 49°10' W 123°53'0 0.0
2014-Jul-22 08:33N 49°10' W 123°53'1 0.6
2014-Jul-22 07:33N 49°10' W 123°53'1716.7
2014-Jul-22 06:33N 49°07' W 123°28'1514.8
2014-Jul-22 05:33N 49°00' W 123°08'1212.5
2014-Jul-22 04:34N 49°04' W 123°26'1918.5
2014-Jul-22 03:34N 49°13' W 123°51'0 0.1
2014-Jul-22 02:33N 49°13' W 123°51'2019.9
2014-Jul-22 01:33N 49°05' W 123°23'1111.1
2014-Jul-22 00:33N 49°00' W 123°08'1313.0
2014-Jul-21 23:34N 49°05' W 123°27'1717.4
2014-Jul-21 22:34N 49°13' W 123°50'2 2.1
2014-Jul-21 21:33N 49°12' W 123°53'2020.1
2014-Jul-21 20:34N 49°05' W 123°24'521.3
2014-Jul-21 20:18N 49°02' W 123°17'6 8.3
2014-Jul-21 19:34N 49°00' W 123°08'1313.3
2014-Jul-21 18:33N 49°05' W 123°27'1818.0
2014-Jul-21 17:33N 49°12' W 123°52'2 1.7
2014-Jul-21 16:33N 49°11' W 123°53'1817.7
2014-Jul-21 15:33N 49°06' W 123°27'1413.9
2014-Jul-21 14:33N 49°00' W 123°08'1211.7
2014-Jul-21 13:33N 49°04' W 123°25'1717.4
2014-Jul-21 12:33N 49°13' W 123°48'5 4.7
2014-Jul-21 11:33N 49°10' W 123°53'0 0.0
2014-Jul-21 10:33N 49°10' W 123°53'0 0.0
2014-Jul-21 09:33N 49°10' W 123°53'0 0.0
2014-Jul-21 08:33N 49°10' W 123°53'1 1.0
2014-Jul-21 07:33N 49°11' W 123°53'1716.9
2014-Jul-21 06:33N 49°07' W 123°28'1514.8
2014-Jul-21 05:33N 49°00' W 123°08'1212.4
2014-Jul-21 04:34N 49°04' W 123°26'1919.0
2014-Jul-21 03:33N 49°12' W 123°52'0 0.5
2014-Jul-21 02:33N 49°13' W 123°52'2019.7
2014-Jul-21 01:34N 49°05' W 123°24'1211.6
2014-Jul-21 00:33N 49°00' W 123°08'1414.2
2014-Jul-20 23:33N 49°05' W 123°28'1717.3
2014-Jul-20 22:33N 49°10' W 123°53'2 2.3
2014-Jul-20 21:33N 49°13' W 123°52'2020.0
2014-Jul-20 20:34N 49°05' W 123°24'1111.2
2014-Jul-20 19:33N 49°00' W 123°08'1211.8
2014-Jul-20 18:33N 49°04' W 123°25'1817.8
2014-Jul-20 17:33N 49°13' W 123°48'3 2.7
2014-Jul-20 16:33N 49°12' W 123°53'1717.3
2014-Jul-20 15:33N 49°06' W 123°28'1414.3
2014-Jul-20 14:33N 49°00' W 123°08'1111.3
2014-Jul-20 13:33N 49°03' W 123°25'1817.8
2014-Jul-20 12:33N 49°13' W 123°48'5 4.7
2014-Jul-20 11:33N 49°10' W 123°53'0 0.0
2014-Jul-20 10:33N 49°10' W 123°53'0 0.0
2014-Jul-20 09:33N 49°10' W 123°53'0 0.0
2014-Jul-20 08:31N 49°10' W 123°53'0 0.5
2014-Jul-20 07:33N 49°10' W 123°53'1716.7
2014-Jul-20 06:33N 49°07' W 123°28'1514.9
2014-Jul-20 05:33N 49°00' W 123°08'1111.2
2014-Jul-20 04:33N 49°04' W 123°24'1918.8
2014-Jul-20 03:33N 49°13' W 123°49'2 2.2
2014-Jul-20 02:33N 49°13' W 123°53'1919.2
2014-Jul-20 01:33N 49°06' W 123°25'1212.5
2014-Jul-20 00:33N 49°00' W 123°08'1515.4
2014-Jul-19 23:34N 49°06' W 123°30'1616.0
2014-Jul-19 22:33N 49°10' W 123°53'7 6.6
2014-Jul-19 21:33N 49°12' W 123°44'2019.9
2014-Jul-19 20:34N 49°02' W 123°18'7 6.7
2014-Jul-19 19:33N 49°00' W 123°08'1414.2
2014-Jul-19 18:33N 49°05' W 123°28'1717.4
2014-Jul-19 17:33N 49°11' W 123°53'4 4.3
2014-Jul-19 16:33N 49°13' W 123°47'1919.3
2014-Jul-19 15:33N 49°04' W 123°21'9 9.4
2014-Jul-19 14:33N 49°00' W 123°08'1212.0
2014-Jul-19 13:34N 49°05' W 123°25'1817.6
2014-Jul-19 12:33N 49°13' W 123°49'4 4.5
2014-Jul-19 11:33N 49°10' W 123°53'0 0.0
2014-Jul-19 10:33N 49°10' W 123°53'0 0.0
2014-Jul-19 09:34N 49°10' W 123°53'0 0.0
2014-Jul-19 08:33N 49°10' W 123°53'2 2.0
2014-Jul-19 07:33N 49°12' W 123°53'1818.4
2014-Jul-19 06:33N 49°06' W 123°26'1313.4
2014-Jul-19 05:33N 49°00' W 123°08'1515.1
2014-Jul-19 04:34N 49°06' W 123°29'1616.2
2014-Jul-19 03:33N 49°10' W 123°53'6 6.3
2014-Jul-19 02:33N 49°12' W 123°44'2121.0
2014-Jul-19 01:33N 49°02' W 123°17'5 5.5
2014-Jul-19 00:34N 48°60' W 123°09'1919.4
2014-Jul-18 23:33N 49°08' W 123°35'1211.9
2014-Jul-18 22:33N 49°10' W 123°53'6 5.6
2014-Jul-18 21:33N 49°13' W 123°46'2020.1
2014-Jul-18 20:33N 49°03' W 123°19'8 7.9
2014-Jul-18 19:34N 49°00' W 123°08'1615.5
2014-Jul-18 18:33N 49°06' W 123°30'1615.7
2014-Jul-18 17:33N 49°10' W 123°53'4 4.3
2014-Jul-18 16:34N 49°13' W 123°49'1919.2
2014-Jul-18 15:33N 49°05' W 123°23'1110.6
2014-Jul-18 14:33N 49°00' W 123°08'1212.4
2014-Jul-18 13:33N 49°04' W 123°26'1818.1
2014-Jul-18 12:33N 49°13' W 123°50'4 3.6
2014-Jul-18 11:33N 49°10' W 123°53'0 0.0
2014-Jul-18 10:34N 49°10' W 123°53'0 0.0
2014-Jul-18 09:33N 49°10' W 123°53'0 0.0
2014-Jul-18 08:33N 49°10' W 123°53'2 1.5
2014-Jul-18 07:33N 49°11' W 123°53'1817.7
2014-Jul-18 06:33N 49°07' W 123°27'1414.2
2014-Jul-18 05:33N 49°00' W 123°08'1312.7
2014-Jul-18 04:33N 49°04' W 123°26'1919.1
2014-Jul-18 03:34N 49°12' W 123°53'2 2.0
2014-Jul-18 02:34N 49°13' W 123°51'2020.0
2014-Jul-18 01:33N 49°05' W 123°23'1110.6
2014-Jul-18 00:33N 49°00' W 123°08'1514.7
2014-Jul-17 23:33N 49°06' W 123°29'1716.4
2014-Jul-17 22:33N 49°10' W 123°53'2 1.7
2014-Jul-17 21:33N 49°12' W 123°53'1817.9
2014-Jul-17 20:33N 49°06' W 123°27'1413.9
2014-Jul-17 19:33N 49°00' W 123°08'1110.9
2014-Jul-17 18:33N 49°03' W 123°24'2020.1
2014-Jul-17 17:33N 49°13' W 123°51'1 0.7
2014-Jul-17 16:33N 49°13' W 123°50'1919.2
2014-Jul-17 15:34N 49°05' W 123°23'1111.2
2014-Jul-17 14:33N 49°00' W 123°08'1212.5
2014-Jul-17 13:33N 49°04' W 123°26'1818.1
2014-Jul-17 12:33N 49°13' W 123°50'4 3.9
2014-Jul-17 11:33N 49°10' W 123°53'0 0.0
2014-Jul-17 10:33N 49°10' W 123°53'0 0.0
2014-Jul-17 09:33N 49°10' W 123°53'0 0.0
2014-Jul-17 08:33N 49°10' W 123°53'10 9.8
2014-Jul-17 07:33N 49°11' W 123°38'1919.3
2014-Jul-17 06:33N 49°01' W 123°13'3 2.8
2014-Jul-17 05:33N 49°00' W 123°09'2020.4
2014-Jul-17 04:33N 49°09' W 123°37'1110.9
2014-Jul-17 03:33N 49°10' W 123°53'8 8.4
2014-Jul-17 02:33N 49°11' W 123°41'2020.5
2014-Jul-17 01:33N 49°01' W 123°14'4 3.5
2014-Jul-17 00:33N 48°60' W 123°09'1919.1
2014-Jul-16 23:33N 49°08' W 123°35'1212.1
2014-Jul-16 22:33N 49°10' W 123°53'9 8.6
2014-Jul-16 21:32N 49°11' W 123°40'1919.3
2014-Jul-16 20:33N 48°59' W 123°17'6 6.3
2014-Jul-16 19:33N 49°00' W 123°08'1514.7
2014-Jul-16 18:33N 49°05' W 123°29'1717.0
2014-Jul-16 17:34N 49°11' W 123°53'4 4.1
2014-Jul-16 16:33N 49°13' W 123°48'1919.3
2014-Jul-16 15:33N 49°04' W 123°22'10 9.8
2014-Jul-16 14:34N 49°00' W 123°08'1312.7
2014-Jul-16 13:33N 49°04' W 123°26'1817.6
2014-Jul-16 12:33N 49°13' W 123°50'4 4.0
2014-Jul-16 11:33N 49°10' W 123°53'0 0.0
2014-Jul-16 10:33N 49°10' W 123°53'0 0.0
2014-Jul-16 09:33N 49°10' W 123°53'0 0.0
2014-Jul-16 08:33N 49°10' W 123°53'2 2.2
2014-Jul-16 07:33N 49°12' W 123°53'1919.3
2014-Jul-16 06:33N 49°06' W 123°25'1312.8
2014-Jul-16 05:34N 49°00' W 123°08'1312.6
2014-Jul-16 04:33N 49°04' W 123°26'1918.6
2014-Jul-16 03:33N 49°12' W 123°52'0 0.2
2014-Jul-16 02:33N 49°13' W 123°52'2020.0
2014-Jul-16 01:33N 49°05' W 123°24'1211.5
2014-Jul-16 00:33N 49°00' W 123°08'1313.1
2014-Jul-15 23:34N 49°05' W 123°27'1918.6
2014-Jul-15 22:33N 49°12' W 123°53'1 1.3
2014-Jul-15 21:33N 49°13' W 123°51'1919.0
2014-Jul-15 20:33N 49°06' W 123°24'1211.9
2014-Jul-15 19:33N 49°00' W 123°08'1413.9
2014-Jul-15 18:34N 49°05' W 123°28'1817.4
2014-Jul-15 17:33N 49°11' W 123°53'4 3.6
2014-Jul-15 16:33N 49°13' W 123°49'2019.7
2014-Jul-15 15:33N 49°04' W 123°22'10 9.8
2014-Jul-15 14:33N 49°00' W 123°08'1313.2
2014-Jul-15 13:33N 49°04' W 123°27'1817.7
2014-Jul-15 12:33N 49°13' W 123°51'3 3.4
2014-Jul-15 11:33N 49°10' W 123°53'0 0.0
2014-Jul-15 10:33N 49°10' W 123°53'0 0.0
2014-Jul-15 09:33N 49°10' W 123°53'0 0.0
2014-Jul-15 08:33N 49°10' W 123°53'1 1.5
2014-Jul-15 07:33N 49°11' W 123°53'1818.4
2014-Jul-15 06:33N 49°06' W 123°27'1313.3
2014-Jul-15 05:33N 49°00' W 123°08'1212.4
2014-Jul-15 04:33N 49°04' W 123°26'1918.5
2014-Jul-15 03:33N 49°12' W 123°51'2 2.3
2014-Jul-15 02:33N 49°13' W 123°48'2121.3
2014-Jul-15 01:34N 49°03' W 123°19'8 7.9
2014-Jul-15 00:33N 49°00' W 123°08'1616.0
2014-Jul-14 23:34N 49°06' W 123°30'1515.5
2014-Jul-14 22:33N 49°10' W 123°53'6 6.0
2014-Jul-14 21:34N 49°13' W 123°46'2121.0
2014-Jul-14 20:34N 49°02' W 123°18'7 7.0
2014-Jul-14 19:34N 49°00' W 123°08'1313.0
2014-Jul-14 18:34N 49°04' W 123°27'1918.6
2014-Jul-14 17:33N 49°11' W 123°53'2 1.6
2014-Jul-14 16:33N 49°13' W 123°51'1918.7
2014-Jul-14 15:33N 49°06' W 123°25'1212.4
2014-Jul-14 14:34N 49°00' W 123°08'1312.5
2014-Jul-14 13:33N 49°04' W 123°26'1818.1
2014-Jul-14 12:33N 49°13' W 123°50'4 4.0
2014-Jul-14 11:33N 49°10' W 123°53'0 0.0
2014-Jul-14 10:33N 49°10' W 123°53'0 0.0
2014-Jul-14 09:33N 49°10' W 123°53'0 0.0
2014-Jul-14 08:33N 49°10' W 123°53'2 1.6
2014-Jul-14 07:33N 49°11' W 123°53'1817.6
2014-Jul-14 06:33N 49°06' W 123°27'1414.1
2014-Jul-14 05:33N 49°00' W 123°08'1312.6
2014-Jul-14 04:34N 49°04' W 123°26'1818.2
2014-Jul-14 03:33N 49°13' W 123°51'0 0.3
2014-Jul-14 02:33N 49°13' W 123°51'1818.3
2014-Jul-14 01:33N 49°06' W 123°25'1312.6
2014-Jul-14 00:33N 49°00' W 123°08'1514.8
2014-Jul-13 23:34N 49°06' W 123°29'1716.7
2014-Jul-13 22:34N 49°10' W 123°53'4 4.1
2014-Jul-13 21:33N 49°13' W 123°49'2019.8
2014-Jul-13 20:33N 49°04' W 123°22'1010.0
2014-Jul-13 19:33N 49°00' W 123°08'1212.2
2014-Jul-13 18:33N 49°04' W 123°26'1818.2
2014-Jul-13 17:33N 49°13' W 123°50'2 2.0
2014-Jul-13 16:33N 49°12' W 123°52'1818.1
2014-Jul-13 15:33N 49°07' W 123°26'1413.6
2014-Jul-13 14:33N 49°00' W 123°08'1212.1
2014-Jul-13 13:33N 49°04' W 123°25'1817.8
2014-Jul-13 12:33N 49°13' W 123°49'4 4.4
2014-Jul-13 11:33N 49°10' W 123°53'0 0.0
2014-Jul-13 10:34N 49°10' W 123°53'0 0.0
2014-Jul-13 09:34N 49°10' W 123°53'0 0.0
2014-Jul-13 08:34N 49°10' W 123°53'1 0.8
2014-Jul-13 07:33N 49°11' W 123°53'1716.6
2014-Jul-13 06:33N 49°07' W 123°29'1515.0
2014-Jul-13 05:33N 49°00' W 123°08'1211.6
2014-Jul-13 04:34N 49°04' W 123°25'1818.2
2014-Jul-13 03:33N 49°13' W 123°49'2 2.3
2014-Jul-13 02:33N 49°12' W 123°52'2019.9
2014-Jul-13 01:33N 49°05' W 123°24'1111.5
2014-Jul-13 00:33N 49°00' W 123°08'1616.0
2014-Jul-12 23:34N 49°07' W 123°30'1615.5
2014-Jul-12 22:33N 49°10' W 123°53'5 4.8
2014-Jul-12 21:33N 49°13' W 123°49'2020.0
2014-Jul-12 20:33N 49°04' W 123°21'10 9.7
2014-Jul-12 19:33N 49°00' W 123°08'  
Track history (hours):
 
Tides and Currents Weather Stations Pressure Air Temp Water Temp Dewpoint Dewpoint Depression Visibility Wind Speed Wind Dir Waves Ship Positions

Coastal Inspiration

Last reported at 2014-Jul-22 18:34 UTC. Time now 2014-Jul-22 18:57 UTC.
Position N 49°05' W 123°27'.

Length 160 m; draft 6 m.

Type: Passenger vessel. MMSI: 316011408.

Date/timePositionNaut miles runAvg speedWind from/ knotsBaromVisibWave heightAir tempDewpointWater temp
2014-Jul-22 18:34N 49°05' W 123°27'1817.6
2014-Jul-22 17:34N 49°12' W 123°52'3 2.7
2014-Jul-22 16:33N 49°10' W 123°53'1716.7
2014-Jul-22 15:33N 49°07' W 123°28'1514.8
2014-Jul-22 14:33N 49°00' W 123°08'1212.3
2014-Jul-22 13:33N 49°04' W 123°26'1717.3
2014-Jul-22 12:34N 49°13' W 123°49'5 4.2
2014-Jul-22 11:29N 49°10' W 123°53'0 0.0
2014-Jul-22 10:33N 49°10' W 123°53'0 0.0
2014-Jul-22 09:33N 49°10' W 123°53'0 0.0
2014-Jul-22 08:33N 49°10' W 123°53'1 0.6
2014-Jul-22 07:33N 49°10' W 123°53'1716.7
2014-Jul-22 06:33N 49°07' W 123°28'1514.8
2014-Jul-22 05:33N 49°00' W 123°08'1212.5
2014-Jul-22 04:34N 49°04' W 123°26'1918.5
2014-Jul-22 03:34N 49°13' W 123°51'0 0.1
2014-Jul-22 02:33N 49°13' W 123°51'2019.9
2014-Jul-22 01:33N 49°05' W 123°23'1111.1
2014-Jul-22 00:33N 49°00' W 123°08'1313.0
2014-Jul-21 23:34N 49°05' W 123°27'1717.4
2014-Jul-21 22:34N 49°13' W 123°50'2 2.1
2014-Jul-21 21:33N 49°12' W 123°53'2020.1
2014-Jul-21 20:34N 49°05' W 123°24'521.3
2014-Jul-21 20:18N 49°02' W 123°17'6 8.3
2014-Jul-21 19:34N 49°00' W 123°08'1313.3
2014-Jul-21 18:33N 49°05' W 123°27'1818.0
2014-Jul-21 17:33N 49°12' W 123°52'2 1.7
2014-Jul-21 16:33N 49°11' W 123°53'1817.7
2014-Jul-21 15:33N 49°06' W 123°27'1413.9
2014-Jul-21 14:33N 49°00' W 123°08'1211.7
2014-Jul-21 13:33N 49°04' W 123°25'1717.4
2014-Jul-21 12:33N 49°13' W 123°48'5 4.7
2014-Jul-21 11:33N 49°10' W 123°53'0 0.0
2014-Jul-21 10:33N 49°10' W 123°53'0 0.0
2014-Jul-21 09:33N 49°10' W 123°53'0 0.0
2014-Jul-21 08:33N 49°10' W 123°53'1 1.0
2014-Jul-21 07:33N 49°11' W 123°53'1716.9
2014-Jul-21 06:33N 49°07' W 123°28'1514.8
2014-Jul-21 05:33N 49°00' W 123°08'1212.4
2014-Jul-21 04:34N 49°04' W 123°26'1919.0
2014-Jul-21 03:33N 49°12' W 123°52'0 0.5
2014-Jul-21 02:33N 49°13' W 123°52'2019.7
2014-Jul-21 01:34N 49°05' W 123°24'1211.6
2014-Jul-21 00:33N 49°00' W 123°08'1414.2
2014-Jul-20 23:33N 49°05' W 123°28'1717.3
2014-Jul-20 22:33N 49°10' W 123°53'2 2.3
2014-Jul-20 21:33N 49°13' W 123°52'2020.0
2014-Jul-20 20:34N 49°05' W 123°24'1111.2
2014-Jul-20 19:33N 49°00' W 123°08'1211.8
2014-Jul-20 18:33N 49°04' W 123°25'1817.8
2014-Jul-20 17:33N 49°13' W 123°48'3 2.7
2014-Jul-20 16:33N 49°12' W 123°53'1717.3
2014-Jul-20 15:33N 49°06' W 123°28'1414.3
2014-Jul-20 14:33N 49°00' W 123°08'1111.3
2014-Jul-20 13:33N 49°03' W 123°25'1817.8
2014-Jul-20 12:33N 49°13' W 123°48'5 4.7
2014-Jul-20 11:33N 49°10' W 123°53'0 0.0
2014-Jul-20 10:33N 49°10' W 123°53'0 0.0
2014-Jul-20 09:33N 49°10' W 123°53'0 0.0
2014-Jul-20 08:31N 49°10' W 123°53'0 0.5
2014-Jul-20 07:33N 49°10' W 123°53'1716.7
2014-Jul-20 06:33N 49°07' W 123°28'1514.9
2014-Jul-20 05:33N 49°00' W 123°08'1111.2
2014-Jul-20 04:33N 49°04' W 123°24'1918.8
2014-Jul-20 03:33N 49°13' W 123°49'2 2.2
2014-Jul-20 02:33N 49°13' W 123°53'1919.2
2014-Jul-20 01:33N 49°06' W 123°25'1212.5
2014-Jul-20 00:33N 49°00' W 123°08'1515.4
2014-Jul-19 23:34N 49°06' W 123°30'1616.0
2014-Jul-19 22:33N 49°10' W 123°53'7 6.6
2014-Jul-19 21:33N 49°12' W 123°44'2019.9
2014-Jul-19 20:34N 49°02' W 123°18'7 6.7
2014-Jul-19 19:33N 49°00' W 123°08'1414.2
2014-Jul-19 18:33N 49°05' W 123°28'1717.4
2014-Jul-19 17:33N 49°11' W 123°53'4 4.3
2014-Jul-19 16:33N 49°13' W 123°47'1919.3
2014-Jul-19 15:33N 49°04' W 123°21'9 9.4
2014-Jul-19 14:33N 49°00' W 123°08'1212.0
2014-Jul-19 13:34N 49°05' W 123°25'1817.6
2014-Jul-19 12:33N 49°13' W 123°49'4 4.5
2014-Jul-19 11:33N 49°10' W 123°53'0 0.0
2014-Jul-19 10:33N 49°10' W 123°53'0 0.0
2014-Jul-19 09:34N 49°10' W 123°53'0 0.0
2014-Jul-19 08:33N 49°10' W 123°53'2 2.0
2014-Jul-19 07:33N 49°12' W 123°53'1818.4
2014-Jul-19 06:33N 49°06' W 123°26'1313.4
2014-Jul-19 05:33N 49°00' W 123°08'1515.1
2014-Jul-19 04:34N 49°06' W 123°29'1616.2
2014-Jul-19 03:33N 49°10' W 123°53'6 6.3
2014-Jul-19 02:33N 49°12' W 123°44'2121.0
2014-Jul-19 01:33N 49°02' W 123°17'5 5.5
2014-Jul-19 00:34N 48°60' W 123°09'1919.4
2014-Jul-18 23:33N 49°08' W 123°35'1211.9
2014-Jul-18 22:33N 49°10' W 123°53'6 5.6
2014-Jul-18 21:33N 49°13' W 123°46'2020.1
2014-Jul-18 20:33N 49°03' W 123°19'8 7.9
2014-Jul-18 19:34N 49°00' W 123°08'1615.5
2014-Jul-18 18:33N 49°06' W 123°30'1615.7
2014-Jul-18 17:33N 49°10' W 123°53'4 4.3
2014-Jul-18 16:34N 49°13' W 123°49'1919.2
2014-Jul-18 15:33N 49°05' W 123°23'1110.6
2014-Jul-18 14:33N 49°00' W 123°08'1212.4
2014-Jul-18 13:33N 49°04' W 123°26'1818.1
2014-Jul-18 12:33N 49°13' W 123°50'4 3.6
2014-Jul-18 11:33N 49°10' W 123°53'0 0.0
2014-Jul-18 10:34N 49°10' W 123°53'0 0.0
2014-Jul-18 09:33N 49°10' W 123°53'0 0.0
2014-Jul-18 08:33N 49°10' W 123°53'2 1.5
2014-Jul-18 07:33N 49°11' W 123°53'1817.7
2014-Jul-18 06:33N 49°07' W 123°27'1414.2
2014-Jul-18 05:33N 49°00' W 123°08'1312.7
2014-Jul-18 04:33N 49°04' W 123°26'1919.1
2014-Jul-18 03:34N 49°12' W 123°53'2 2.0
2014-Jul-18 02:34N 49°13' W 123°51'2020.0
2014-Jul-18 01:33N 49°05' W 123°23'1110.6
2014-Jul-18 00:33N 49°00' W 123°08'1514.7
2014-Jul-17 23:33N 49°06' W 123°29'1716.4
2014-Jul-17 22:33N 49°10' W 123°53'2 1.7
2014-Jul-17 21:33N 49°12' W 123°53'1817.9
2014-Jul-17 20:33N 49°06' W 123°27'1413.9
2014-Jul-17 19:33N 49°00' W 123°08'1110.9
2014-Jul-17 18:33N 49°03' W 123°24'2020.1
2014-Jul-17 17:33N 49°13' W 123°51'1 0.7
2014-Jul-17 16:33N 49°13' W 123°50'1919.2
2014-Jul-17 15:34N 49°05' W 123°23'1111.2
2014-Jul-17 14:33N 49°00' W 123°08'1212.5
2014-Jul-17 13:33N 49°04' W 123°26'1818.1
2014-Jul-17 12:33N 49°13' W 123°50'4 3.9
2014-Jul-17 11:33N 49°10' W 123°53'0 0.0
2014-Jul-17 10:33N 49°10' W 123°53'0 0.0
2014-Jul-17 09:33N 49°10' W 123°53'0 0.0
2014-Jul-17 08:33N 49°10' W 123°53'10 9.8
2014-Jul-17 07:33N 49°11' W 123°38'1919.3
2014-Jul-17 06:33N 49°01' W 123°13'3 2.8
2014-Jul-17 05:33N 49°00' W 123°09'2020.4
2014-Jul-17 04:33N 49°09' W 123°37'1110.9
2014-Jul-17 03:33N 49°10' W 123°53'8 8.4
2014-Jul-17 02:33N 49°11' W 123°41'2020.5
2014-Jul-17 01:33N 49°01' W 123°14'4 3.5
2014-Jul-17 00:33N 48°60' W 123°09'1919.1
2014-Jul-16 23:33N 49°08' W 123°35'1212.1
2014-Jul-16 22:33N 49°10' W 123°53'9 8.6
2014-Jul-16 21:32N 49°11' W 123°40'1919.3
2014-Jul-16 20:33N 48°59' W 123°17'6 6.3
2014-Jul-16 19:33N 49°00' W 123°08'1514.7
2014-Jul-16 18:33N 49°05' W 123°29'1717.0
2014-Jul-16 17:34N 49°11' W 123°53'4 4.1
2014-Jul-16 16:33N 49°13' W 123°48'1919.3
2014-Jul-16 15:33N 49°04' W 123°22'10 9.8
2014-Jul-16 14:34N 49°00' W 123°08'1312.7
2014-Jul-16 13:33N 49°04' W 123°26'1817.6
2014-Jul-16 12:33N 49°13' W 123°50'4 4.0
2014-Jul-16 11:33N 49°10' W 123°53'0 0.0
2014-Jul-16 10:33N 49°10' W 123°53'0 0.0
2014-Jul-16 09:33N 49°10' W 123°53'0 0.0
2014-Jul-16 08:33N 49°10' W 123°53'2 2.2
2014-Jul-16 07:33N 49°12' W 123°53'1919.3
2014-Jul-16 06:33N 49°06' W 123°25'1312.8
2014-Jul-16 05:34N 49°00' W 123°08'1312.6
2014-Jul-16 04:33N 49°04' W 123°26'1918.6
2014-Jul-16 03:33N 49°12' W 123°52'0 0.2
2014-Jul-16 02:33N 49°13' W 123°52'2020.0
2014-Jul-16 01:33N 49°05' W 123°24'1211.5
2014-Jul-16 00:33N 49°00' W 123°08'1313.1
2014-Jul-15 23:34N 49°05' W 123°27'1918.6
2014-Jul-15 22:33N 49°12' W 123°53'1 1.3
2014-Jul-15 21:33N 49°13' W 123°51'1919.0
2014-Jul-15 20:33N 49°06' W 123°24'1211.9
2014-Jul-15 19:33N 49°00' W 123°08'1413.9
2014-Jul-15 18:34N 49°05' W 123°28'1817.4
2014-Jul-15 17:33N 49°11' W 123°53'4 3.6
2014-Jul-15 16:33N 49°13' W 123°49'2019.7
2014-Jul-15 15:33N 49°04' W 123°22'10 9.8
2014-Jul-15 14:33N 49°00' W 123°08'1313.2
2014-Jul-15 13:33N 49°04' W 123°27'1817.7
2014-Jul-15 12:33N 49°13' W 123°51'3 3.4
2014-Jul-15 11:33N 49°10' W 123°53'0 0.0
2014-Jul-15 10:33N 49°10' W 123°53'0 0.0
2014-Jul-15 09:33N 49°10' W 123°53'0 0.0
2014-Jul-15 08:33N 49°10' W 123°53'1 1.5
2014-Jul-15 07:33N 49°11' W 123°53'1818.4
2014-Jul-15 06:33N 49°06' W 123°27'1313.3
2014-Jul-15 05:33N 49°00' W 123°08'1212.4
2014-Jul-15 04:33N 49°04' W 123°26'1918.5
2014-Jul-15 03:33N 49°12' W 123°51'2 2.3
2014-Jul-15 02:33N 49°13' W 123°48'2121.3
2014-Jul-15 01:34N 49°03' W 123°19'8 7.9
2014-Jul-15 00:33N 49°00' W 123°08'1616.0
2014-Jul-14 23:34N 49°06' W 123°30'1515.5
2014-Jul-14 22:33N 49°10' W 123°53'6 6.0
2014-Jul-14 21:34N 49°13' W 123°46'2121.0
2014-Jul-14 20:34N 49°02' W 123°18'7 7.0
2014-Jul-14 19:34N 49°00' W 123°08'1313.0
2014-Jul-14 18:34N 49°04' W 123°27'1918.6
2014-Jul-14 17:33N 49°11' W 123°53'2 1.6
2014-Jul-14 16:33N 49°13' W 123°51'1918.7
2014-Jul-14 15:33N 49°06' W 123°25'1212.4
2014-Jul-14 14:34N 49°00' W 123°08'1312.5
2014-Jul-14 13:33N 49°04' W 123°26'1818.1
2014-Jul-14 12:33N 49°13' W 123°50'4 4.0
2014-Jul-14 11:33N 49°10' W 123°53'0 0.0
2014-Jul-14 10:33N 49°10' W 123°53'0 0.0
2014-Jul-14 09:33N 49°10' W 123°53'0 0.0
2014-Jul-14 08:33N 49°10' W 123°53'2 1.6
2014-Jul-14 07:33N 49°11' W 123°53'1817.6
2014-Jul-14 06:33N 49°06' W 123°27'1414.1
2014-Jul-14 05:33N 49°00' W 123°08'1312.6
2014-Jul-14 04:34N 49°04' W 123°26'1818.2
2014-Jul-14 03:33N 49°13' W 123°51'0 0.3
2014-Jul-14 02:33N 49°13' W 123°51'1818.3
2014-Jul-14 01:33N 49°06' W 123°25'1312.6
2014-Jul-14 00:33N 49°00' W 123°08'1514.8
2014-Jul-13 23:34N 49°06' W 123°29'1716.7
2014-Jul-13 22:34N 49°10' W 123°53'4 4.1
2014-Jul-13 21:33N 49°13' W 123°49'2019.8
2014-Jul-13 20:33N 49°04' W 123°22'1010.0
2014-Jul-13 19:33N 49°00' W 123°08'1212.2
2014-Jul-13 18:33N 49°04' W 123°26'1818.2
2014-Jul-13 17:33N 49°13' W 123°50'2 2.0
2014-Jul-13 16:33N 49°12' W 123°52'1818.1
2014-Jul-13 15:33N 49°07' W 123°26'1413.6
2014-Jul-13 14:33N 49°00' W 123°08'1212.1
2014-Jul-13 13:33N 49°04' W 123°25'1817.8
2014-Jul-13 12:33N 49°13' W 123°49'4 4.4
2014-Jul-13 11:33N 49°10' W 123°53'0 0.0
2014-Jul-13 10:34N 49°10' W 123°53'0 0.0
2014-Jul-13 09:34N 49°10' W 123°53'0 0.0
2014-Jul-13 08:34N 49°10' W 123°53'1 0.8
2014-Jul-13 07:33N 49°11' W 123°53'1716.6
2014-Jul-13 06:33N 49°07' W 123°29'1515.0
2014-Jul-13 05:33N 49°00' W 123°08'1211.6
2014-Jul-13 04:34N 49°04' W 123°25'1818.2
2014-Jul-13 03:33N 49°13' W 123°49'2 2.3
2014-Jul-13 02:33N 49°12' W 123°52'2019.9
2014-Jul-13 01:33N 49°05' W 123°24'1111.5
2014-Jul-13 00:33N 49°00' W 123°08'1616.0
2014-Jul-12 23:34N 49°07' W 123°30'1615.5
2014-Jul-12 22:33N 49°10' W 123°53'5 4.8
2014-Jul-12 21:33N 49°13' W 123°49'2020.0
2014-Jul-12 20:33N 49°04' W 123°21'10 9.7
2014-Jul-12 19:33N 49°00' W 123°08'  

Dump ship's entire track history